createdAt,value
2023-04-22T00:01:15.068Z,48.70
2023-04-22T00:03:41.920Z,48.70
2023-04-22T00:06:08.859Z,48.65
2023-04-22T00:08:35.526Z,48.83
2023-04-22T00:11:02.396Z,48.73
2023-04-22T00:13:29.285Z,48.79
2023-04-22T00:15:55.998Z,48.74
2023-04-22T00:18:22.712Z,48.73
2023-04-22T00:20:49.400Z,48.79
2023-04-22T00:23:16.102Z,48.71
2023-04-22T00:25:42.801Z,48.75
2023-04-22T00:28:09.456Z,48.68
2023-04-22T00:30:36.158Z,48.76
2023-04-22T00:33:02.940Z,48.81
2023-04-22T00:35:29.712Z,48.70
2023-04-22T00:37:56.421Z,48.75
2023-04-22T00:40:23.102Z,48.76
2023-04-22T00:42:49.759Z,48.77
2023-04-22T00:45:16.411Z,48.84
2023-04-22T00:47:43.383Z,48.69
2023-04-22T00:50:10.090Z,48.67
2023-04-22T00:52:36.790Z,48.87
2023-04-22T00:55:03.479Z,48.74
2023-04-22T00:57:30.125Z,48.84
2023-04-22T00:59:56.780Z,48.86
2023-04-22T01:02:23.585Z,48.77
2023-04-22T01:04:50.314Z,48.78
2023-04-22T01:07:16.989Z,48.77
2023-04-22T01:09:43.643Z,48.83
2023-04-22T01:12:10.309Z,48.77
2023-04-22T01:14:36.979Z,48.71
2023-04-22T01:17:03.879Z,48.85
2023-04-22T01:19:30.567Z,48.71
2023-04-22T01:21:57.217Z,48.78
2023-04-22T01:24:24.089Z,48.77
2023-04-22T01:26:50.747Z,48.82
2023-04-22T01:29:17.600Z,48.82
2023-04-22T01:31:44.513Z,48.76
2023-04-22T01:34:11.211Z,48.84
2023-04-22T01:36:37.860Z,48.80
2023-04-22T01:39:04.495Z,48.85
2023-04-22T01:41:31.128Z,48.83
2023-04-22T01:43:57.765Z,48.76
2023-04-22T01:46:24.464Z,48.90
2023-04-22T01:48:51.141Z,48.84
2023-04-22T01:51:18.011Z,48.82
2023-04-22T01:53:44.633Z,48.71
2023-04-22T01:56:11.277Z,48.78
2023-04-22T01:58:37.923Z,48.85
2023-04-22T02:01:04.618Z,48.80
2023-04-22T02:03:31.403Z,48.81
2023-04-22T02:05:58.312Z,48.80
2023-04-22T02:08:24.943Z,48.78
2023-04-22T02:10:51.572Z,48.86
2023-04-22T02:13:18.207Z,48.79
2023-04-22T02:15:45.134Z,48.88
2023-04-22T02:18:11.779Z,48.78
2023-04-22T02:20:38.427Z,48.75
2023-04-22T02:23:05.286Z,48.80
2023-04-22T02:25:31.913Z,48.72
2023-04-22T02:27:58.542Z,48.81
2023-04-22T02:30:25.182Z,48.71
2023-04-22T02:32:51.906Z,48.76
2023-04-22T02:35:18.623Z,48.78
2023-04-22T02:37:45.277Z,48.74
2023-04-22T02:40:11.919Z,48.82
2023-04-22T02:42:38.569Z,48.65
2023-04-22T02:45:05.195Z,48.77
2023-04-22T02:47:31.848Z,48.78
2023-04-22T02:49:58.512Z,48.78
2023-04-22T02:52:25.148Z,48.81
2023-04-22T02:54:51.776Z,48.67
2023-04-22T02:57:18.436Z,48.72
2023-04-22T02:59:45.065Z,48.75
2023-04-22T03:02:11.774Z,48.68
2023-04-22T03:04:38.479Z,48.73
2023-04-22T03:07:05.160Z,48.69
2023-04-22T03:09:32.519Z,48.74
2023-04-22T03:11:59.153Z,48.71
2023-04-22T03:14:25.802Z,48.67
2023-04-22T03:16:52.511Z,48.79
2023-04-22T03:19:19.172Z,48.68
2023-04-22T03:21:45.824Z,48.73
2023-04-22T03:24:12.455Z,48.66
2023-04-22T03:26:39.085Z,48.70
2023-04-22T03:29:05.925Z,48.64
2023-04-22T03:31:32.636Z,48.63
2023-04-22T03:33:59.701Z,48.70
2023-04-22T03:36:26.373Z,48.59
2023-04-22T03:38:53.216Z,48.69
2023-04-22T03:41:20.065Z,48.62
2023-04-22T03:43:46.696Z,48.45
2023-04-22T03:46:13.375Z,48.57
2023-04-22T03:48:40.037Z,48.57
2023-04-22T03:51:06.678Z,48.64
2023-04-22T03:53:33.335Z,48.53
2023-04-22T03:55:59.993Z,48.63
2023-04-22T03:58:26.649Z,48.62
2023-04-22T04:00:53.320Z,48.63
2023-04-22T04:03:20.211Z,48.63
2023-04-22T04:05:47.252Z,48.50
2023-04-22T04:08:14.008Z,48.58
2023-04-22T04:10:40.869Z,48.58
2023-04-22T04:13:07.708Z,48.54
2023-04-22T04:15:34.370Z,48.58
2023-04-22T04:18:01.186Z,48.53
2023-04-22T04:20:28.140Z,48.56
2023-04-22T04:22:54.767Z,48.52
2023-04-22T04:25:21.397Z,48.53
2023-04-22T04:27:48.090Z,48.53
2023-04-22T04:30:14.713Z,48.48
2023-04-22T04:32:41.390Z,48.48
2023-04-22T04:35:08.061Z,48.55
2023-04-22T04:37:34.708Z,48.49
2023-04-22T04:40:01.358Z,48.50
2023-04-22T04:42:28.209Z,48.47
2023-04-22T04:44:54.840Z,48.46
2023-04-22T04:47:21.532Z,48.51
2023-04-22T04:49:48.166Z,48.44
2023-04-22T04:52:14.817Z,48.49
2023-04-22T04:54:41.474Z,48.41
2023-04-22T04:57:08.335Z,48.45
2023-04-22T04:59:34.979Z,48.47
2023-04-22T05:02:01.878Z,48.42
2023-04-22T05:04:28.883Z,48.48
2023-04-22T05:06:55.739Z,48.43
2023-04-22T05:09:22.378Z,48.45
2023-04-22T05:11:49.013Z,48.38
2023-04-22T05:14:15.669Z,48.44
2023-04-22T05:16:42.586Z,48.39
2023-04-22T05:19:09.276Z,48.37
2023-04-22T05:21:35.921Z,48.45
2023-04-22T05:24:02.567Z,48.41
2023-04-22T05:26:29.933Z,48.40
2023-04-22T05:28:56.790Z,48.40
2023-04-22T05:31:23.507Z,48.38
2023-04-22T05:33:50.209Z,48.41
2023-04-22T05:36:16.854Z,48.38
2023-04-22T05:38:43.489Z,48.38
2023-04-22T05:41:10.114Z,48.32
2023-04-22T05:43:36.764Z,48.45
2023-04-22T05:46:03.466Z,48.33
2023-04-22T05:48:30.172Z,48.33
2023-04-22T05:50:56.809Z,48.36
2023-04-22T05:53:23.437Z,48.31
2023-04-22T05:55:50.065Z,48.37
2023-04-22T05:58:16.910Z,48.34
2023-04-22T06:00:43.542Z,48.34
2023-04-22T06:03:10.449Z,48.32
2023-04-22T06:05:37.454Z,48.29
2023-04-22T06:08:04.265Z,48.34
2023-04-22T06:10:30.899Z,48.32
2023-04-22T06:12:57.533Z,48.37
2023-04-22T06:15:24.162Z,48.30
2023-04-22T06:17:51.100Z,48.27
2023-04-22T06:20:17.780Z,48.32
2023-04-22T06:22:44.635Z,48.30
2023-04-22T06:25:11.272Z,48.35
2023-04-22T06:27:37.904Z,48.26
2023-04-22T06:30:04.531Z,48.29
2023-04-22T06:32:31.254Z,48.36
2023-04-22T06:34:57.918Z,48.28
2023-04-22T06:37:24.557Z,48.29
2023-04-22T06:39:51.187Z,48.34
2023-04-22T06:42:18.024Z,48.27
2023-04-22T06:44:44.649Z,48.30
2023-04-22T06:47:11.482Z,48.26
2023-04-22T06:49:38.378Z,48.30
2023-04-22T06:52:05.181Z,48.26
2023-04-22T06:54:31.822Z,48.24
2023-04-22T06:56:58.472Z,48.27
2023-04-22T06:59:25.103Z,48.23
2023-04-22T07:01:51.760Z,48.25
2023-04-22T07:04:19.294Z,48.22
2023-04-22T07:06:45.955Z,48.21
2023-04-22T07:09:12.586Z,48.30
2023-04-22T07:11:39.237Z,48.22
2023-04-22T07:14:06.087Z,48.29
2023-04-22T07:16:32.914Z,48.29
2023-04-22T07:19:00.259Z,48.22
2023-04-22T07:21:26.893Z,48.25
2023-04-22T07:23:53.533Z,48.22
2023-04-22T07:26:20.174Z,48.24
2023-04-22T07:28:46.807Z,48.23
2023-04-22T07:31:13.440Z,48.26
2023-04-22T07:33:40.080Z,48.35
2023-04-22T07:36:06.713Z,48.26
2023-04-22T07:38:33.342Z,48.33
2023-04-22T07:40:59.992Z,48.35
2023-04-22T07:43:26.620Z,48.29
2023-04-22T07:45:53.340Z,48.32
2023-04-22T07:48:20.011Z,48.25
2023-04-22T07:50:46.636Z,48.29
2023-04-22T07:53:13.269Z,48.36
2023-04-22T07:55:39.902Z,48.28
2023-04-22T07:58:06.625Z,48.28
2023-04-22T08:00:33.368Z,48.27
2023-04-22T08:03:00.094Z,48.18
2023-04-22T08:05:26.872Z,48.21
2023-04-22T08:07:53.533Z,48.13
2023-04-22T08:10:20.377Z,48.24
2023-04-22T08:12:47.015Z,48.32
2023-04-22T08:15:13.652Z,48.46
2023-04-22T08:17:40.681Z,48.39
2023-04-22T08:20:08.188Z,48.42
2023-04-22T08:22:34.927Z,48.35
2023-04-22T08:25:01.594Z,48.43
2023-04-22T08:27:28.218Z,48.49
2023-04-22T08:29:55.075Z,48.53
2023-04-22T08:32:21.941Z,48.43
2023-04-22T08:34:51.922Z,48.38
2023-04-22T08:37:20.601Z,48.35
2023-04-22T08:39:47.230Z,48.39
2023-04-22T08:42:13.860Z,48.24
2023-04-22T08:44:40.511Z,48.38
2023-04-22T08:47:07.248Z,48.35
2023-04-22T08:49:34.240Z,48.39
2023-04-22T08:52:00.883Z,48.41
2023-04-22T08:54:27.722Z,48.34
2023-04-22T08:56:54.567Z,48.32
2023-04-22T08:59:21.208Z,48.46
2023-04-22T09:01:48.078Z,48.30
2023-04-22T09:04:15.082Z,48.28
2023-04-22T09:06:41.824Z,48.23
2023-04-22T09:09:08.458Z,48.26
2023-04-22T09:11:35.094Z,48.28
2023-04-22T09:14:01.739Z,48.27
2023-04-22T09:16:28.412Z,48.18
2023-04-22T09:18:55.083Z,48.22
2023-04-22T09:21:21.926Z,48.14
2023-04-22T09:23:48.561Z,48.26
2023-04-22T09:26:15.198Z,48.17
2023-04-22T09:28:41.847Z,48.26
2023-04-22T09:31:08.469Z,48.26
2023-04-22T09:33:35.091Z,48.27
2023-04-22T09:36:02.698Z,48.28
2023-04-22T09:38:29.320Z,48.28
2023-04-22T09:40:55.953Z,48.23
2023-04-22T09:43:22.601Z,48.23
2023-04-22T09:45:49.298Z,48.29
2023-04-22T09:48:15.957Z,48.21
2023-04-22T09:50:42.603Z,48.33
2023-04-22T09:53:09.261Z,48.37
2023-04-22T09:55:35.901Z,48.25
2023-04-22T09:58:02.574Z,48.28
2023-04-22T10:00:29.221Z,48.17
2023-04-22T10:02:55.960Z,48.29
2023-04-22T10:05:22.866Z,48.36
2023-04-22T10:07:49.539Z,48.32
2023-04-22T10:10:16.433Z,48.47
2023-04-22T10:12:43.064Z,48.35
2023-04-22T10:15:09.689Z,48.40
2023-04-22T10:17:36.381Z,48.47
2023-04-22T10:20:03.020Z,48.30
2023-04-22T10:22:29.646Z,48.33
2023-04-22T10:24:56.514Z,48.33
2023-04-22T10:27:23.170Z,48.31
2023-04-22T10:29:49.894Z,48.24
2023-04-22T10:32:16.530Z,48.25
2023-04-22T10:34:43.168Z,48.31
2023-04-22T10:37:09.822Z,48.31
2023-04-22T10:39:36.449Z,48.39
2023-04-22T10:42:03.082Z,48.39
2023-04-22T10:44:29.720Z,48.41
2023-04-22T10:46:56.614Z,48.33
2023-04-22T10:49:23.491Z,48.40
2023-04-22T10:51:50.153Z,48.47
2023-04-22T10:54:16.797Z,48.11
2023-04-22T10:56:51.718Z,48.22
2023-04-22T10:59:22.207Z,48.16
2023-04-22T11:01:49.087Z,48.25
2023-04-22T11:04:15.859Z,48.28
2023-04-22T11:06:42.768Z,48.31
2023-04-22T11:09:09.398Z,48.24
2023-04-22T11:11:36.040Z,48.30
2023-04-22T11:14:02.672Z,48.23
2023-04-22T11:16:29.391Z,48.31
2023-04-22T11:18:56.041Z,48.30
2023-04-22T11:21:22.713Z,48.32
2023-04-22T11:23:49.366Z,48.33
2023-04-22T11:26:15.995Z,48.32
2023-04-22T11:28:42.632Z,48.36
2023-04-22T11:31:09.297Z,48.27
2023-04-22T11:33:35.970Z,48.45
2023-04-22T11:36:02.621Z,48.49
2023-04-22T11:38:29.686Z,48.43
2023-04-22T11:40:56.533Z,48.45
2023-04-22T11:43:23.377Z,48.50
2023-04-22T11:45:50.283Z,48.58
2023-04-22T11:48:17.149Z,48.59
2023-04-22T11:50:43.779Z,48.59
2023-04-22T11:53:10.423Z,48.59
2023-04-22T11:55:37.282Z,48.56
2023-04-22T11:58:03.900Z,48.56
2023-04-22T12:00:30.533Z,48.68
2023-04-22T12:02:57.502Z,48.69
2023-04-22T12:05:24.264Z,48.74
2023-04-22T12:07:51.145Z,48.78
2023-04-22T12:10:17.989Z,48.67
2023-04-22T12:12:44.615Z,48.73
2023-04-22T12:15:13.531Z,48.75
2023-04-22T12:17:40.571Z,48.75
2023-04-22T12:20:07.240Z,48.69
2023-04-22T12:22:33.875Z,48.68
2023-04-22T12:25:00.500Z,48.79
2023-04-22T12:27:27.155Z,48.76
2023-04-22T12:29:53.785Z,48.71
2023-04-22T12:32:20.429Z,48.77
2023-04-22T12:34:47.062Z,48.79
2023-04-22T12:37:13.706Z,48.78
2023-04-22T12:39:40.695Z,48.79
2023-04-22T12:42:07.638Z,48.75
2023-04-22T12:44:34.287Z,48.82
2023-04-22T12:47:00.916Z,48.78
2023-04-22T12:49:27.750Z,48.79
2023-04-22T12:51:54.395Z,48.81
2023-04-22T12:54:21.033Z,48.82
2023-04-22T12:56:47.665Z,48.81
2023-04-22T12:59:14.301Z,48.82
2023-04-22T13:01:41.045Z,48.90
2023-04-22T13:04:07.858Z,48.99
2023-04-22T13:06:34.619Z,48.93
2023-04-22T13:09:01.270Z,48.94
2023-04-22T13:11:27.922Z,48.90
2023-04-22T13:13:54.562Z,48.88
2023-04-22T13:16:21.241Z,48.91
2023-04-22T13:18:47.906Z,48.89
2023-04-22T13:21:14.805Z,48.86
2023-04-22T13:23:41.446Z,48.88
2023-04-22T13:26:08.304Z,48.88
2023-04-22T13:28:34.944Z,48.82
2023-04-22T13:31:01.818Z,48.90
2023-04-22T13:33:28.668Z,48.81
2023-04-22T13:35:55.302Z,48.77
2023-04-22T13:38:21.933Z,48.86
2023-04-22T13:40:48.569Z,48.84
2023-04-22T13:43:17.854Z,48.93
2023-04-22T13:45:44.559Z,48.73
2023-04-22T13:48:11.446Z,48.81
2023-04-22T13:50:38.077Z,49.02
2023-04-22T13:53:04.777Z,48.95
2023-04-22T13:55:31.679Z,48.95
2023-04-22T13:57:58.528Z,48.87
2023-04-22T14:00:25.173Z,48.77
2023-04-22T14:02:52.101Z,48.79
2023-04-22T14:05:18.874Z,48.84
2023-04-22T14:07:45.729Z,48.78
2023-04-22T14:10:12.359Z,48.83
2023-04-22T14:12:39.202Z,48.77
2023-04-22T14:15:06.052Z,48.77
2023-04-22T14:17:32.924Z,48.81
2023-04-22T14:19:59.586Z,48.85
2023-04-22T14:22:26.443Z,48.83
2023-04-22T14:24:53.080Z,48.89
2023-04-22T14:27:19.928Z,48.93
2023-04-22T14:29:46.567Z,48.95
2023-04-22T14:32:13.208Z,48.93
2023-04-22T14:34:40.054Z,48.84
2023-04-22T14:37:06.899Z,48.87
2023-04-22T14:39:33.757Z,48.86
2023-04-22T14:42:00.396Z,48.86
2023-04-22T14:44:27.258Z,48.84
2023-04-22T14:46:53.905Z,48.90
2023-04-22T14:49:20.549Z,48.91
2023-04-22T14:51:47.213Z,48.90
2023-04-22T14:54:14.110Z,48.91
2023-04-22T14:56:40.739Z,48.85
2023-04-22T14:59:07.589Z,48.91
2023-04-22T15:01:34.253Z,48.96
2023-04-22T15:04:01.387Z,48.92
2023-04-22T15:06:28.099Z,48.95
2023-04-22T15:08:54.763Z,48.87
2023-04-22T15:11:21.414Z,48.95
2023-04-22T15:13:48.303Z,48.86
2023-04-22T15:16:15.186Z,48.94
2023-04-22T15:18:41.856Z,48.98
2023-04-22T15:21:08.478Z,48.99
2023-04-22T15:23:35.310Z,48.95
2023-04-22T15:26:01.934Z,48.89
2023-04-22T15:28:28.564Z,48.86
2023-04-22T15:30:55.201Z,48.85
2023-04-22T15:33:22.049Z,48.95
2023-04-22T15:35:48.691Z,48.92
2023-04-22T15:38:15.533Z,48.93
2023-04-22T15:40:42.155Z,48.94
2023-04-22T15:43:08.791Z,48.95
2023-04-22T15:45:35.641Z,48.94
2023-04-22T15:48:02.344Z,49.03
2023-04-22T15:50:29.068Z,48.98
2023-04-22T15:52:55.720Z,48.99
2023-04-22T15:55:22.361Z,49.02
2023-04-22T15:57:49.003Z,48.99
2023-04-22T16:00:15.630Z,48.97
2023-04-22T16:02:42.826Z,48.98
2023-04-22T16:05:09.988Z,48.98
2023-04-22T16:07:39.655Z,49.01
2023-04-22T16:10:06.302Z,48.98
2023-04-22T16:12:34.468Z,49.00
2023-04-22T16:15:01.316Z,49.00
2023-04-22T16:17:28.228Z,49.03
2023-04-22T16:19:54.878Z,48.98
2023-04-22T16:22:21.736Z,49.04
2023-04-22T16:24:48.378Z,49.06
2023-04-22T16:27:15.249Z,49.09
2023-04-22T16:29:42.315Z,49.11
2023-04-22T16:32:09.149Z,49.06
2023-04-22T16:34:35.776Z,49.12
2023-04-22T16:37:02.405Z,49.14
2023-04-22T16:39:29.276Z,49.13
2023-04-22T16:41:55.905Z,49.17
2023-04-22T16:44:22.557Z,49.19
2023-04-22T16:46:49.200Z,49.15
2023-04-22T16:49:15.833Z,49.17
2023-04-22T16:51:42.456Z,49.14
2023-04-22T16:54:09.090Z,49.11
2023-04-22T16:56:35.710Z,49.14
2023-04-22T16:59:02.354Z,49.18
2023-04-22T17:01:29.019Z,49.16
2023-04-22T17:03:55.897Z,49.21
2023-04-22T17:06:22.679Z,49.17
2023-04-22T17:08:49.326Z,49.15
2023-04-22T17:11:15.950Z,49.15
2023-04-22T17:13:42.571Z,49.11
2023-04-22T17:16:09.205Z,49.19
2023-04-22T17:18:35.872Z,49.16
2023-04-22T17:21:02.561Z,49.19
2023-04-22T17:23:29.213Z,49.13
2023-04-22T17:25:55.848Z,49.23
2023-04-22T17:28:22.500Z,49.17
2023-04-22T17:30:49.135Z,49.17
2023-04-22T17:33:15.759Z,49.21
2023-04-22T17:35:42.406Z,49.22
2023-04-22T17:38:09.057Z,49.24
2023-04-22T17:40:35.697Z,49.23
2023-04-22T17:43:02.332Z,49.27
2023-04-22T17:45:28.972Z,49.28
2023-04-22T17:47:55.643Z,49.36
2023-04-22T17:50:22.304Z,49.37
2023-04-22T17:52:48.934Z,49.30
2023-04-22T17:55:15.577Z,49.24
2023-04-22T17:57:42.232Z,49.33
2023-04-22T18:00:08.867Z,49.34
2023-04-22T18:02:35.590Z,49.30
2023-04-22T18:05:02.356Z,49.31
2023-04-22T18:07:28.984Z,49.33
2023-04-22T18:09:55.614Z,49.30
2023-04-22T18:12:22.274Z,49.31
2023-04-22T18:14:49.144Z,49.36
2023-04-22T18:17:15.784Z,49.31
2023-04-22T18:19:42.800Z,49.39
2023-04-22T18:22:09.635Z,49.39
2023-04-22T18:24:36.265Z,49.41
2023-04-22T18:27:02.896Z,49.37
2023-04-22T18:29:29.530Z,49.39
2023-04-22T18:31:56.273Z,49.40
2023-04-22T18:34:22.955Z,49.41
2023-04-22T18:36:49.612Z,49.44
2023-04-22T18:39:16.256Z,49.35
2023-04-22T18:41:42.892Z,49.47
2023-04-22T18:44:09.763Z,49.38
2023-04-22T18:46:36.396Z,49.34
2023-04-22T18:49:03.022Z,49.39
2023-04-22T18:51:29.654Z,49.39
2023-04-22T18:53:56.309Z,49.44
2023-04-22T18:56:22.998Z,49.44
2023-04-22T18:58:50.072Z,49.42
2023-04-22T19:01:17.069Z,49.49
2023-04-22T19:03:43.882Z,49.48
2023-04-22T19:06:10.836Z,49.44
2023-04-22T19:08:37.462Z,49.43
2023-04-22T19:11:04.115Z,49.49
2023-04-22T19:13:30.757Z,49.47
2023-04-22T19:15:57.478Z,49.52
2023-04-22T19:18:24.180Z,49.48
2023-04-22T19:20:50.824Z,49.48
2023-04-22T19:23:17.472Z,49.57
2023-04-22T19:25:44.104Z,49.54
2023-04-22T19:28:10.744Z,49.48
2023-04-22T19:30:37.382Z,49.56
2023-04-22T19:33:04.082Z,49.56
2023-04-22T19:35:30.759Z,49.54
2023-04-22T19:37:57.384Z,49.56
2023-04-22T19:40:24.046Z,49.60
2023-04-22T19:42:50.685Z,49.68
2023-04-22T19:45:17.326Z,49.55
2023-04-22T19:47:43.999Z,49.65
2023-04-22T19:50:10.646Z,49.61
2023-04-22T19:52:37.306Z,49.58
2023-04-22T19:55:03.957Z,49.63
2023-04-22T19:57:30.581Z,49.60
2023-04-22T19:59:57.216Z,49.65
2023-04-22T20:02:23.953Z,49.54
2023-04-22T20:04:50.761Z,49.65
2023-04-22T20:07:17.382Z,49.70
2023-04-22T20:09:44.235Z,49.70
2023-04-22T20:12:10.883Z,49.65
2023-04-22T20:14:37.517Z,49.69
2023-04-22T20:17:04.145Z,49.65
2023-04-22T20:19:30.772Z,49.66
2023-04-22T20:21:57.461Z,49.66
2023-04-22T20:24:24.123Z,49.61
2023-04-22T20:26:50.974Z,49.66
2023-04-22T20:29:17.611Z,49.71
2023-04-22T20:31:44.274Z,49.65
2023-04-22T20:34:10.914Z,49.75
2023-04-22T20:36:37.640Z,49.67
2023-04-22T20:39:04.280Z,49.77
2023-04-22T20:41:30.927Z,49.74
2023-04-22T20:43:57.604Z,49.76
2023-04-22T20:46:24.395Z,49.74
2023-04-22T20:48:51.094Z,49.72
2023-04-22T20:51:17.965Z,49.73
2023-04-22T20:53:44.610Z,49.75
2023-04-22T20:56:11.247Z,49.78
2023-04-22T20:58:37.885Z,49.79
2023-04-22T21:01:04.784Z,49.74
2023-04-22T21:03:31.705Z,49.79
2023-04-22T21:05:58.469Z,49.75
2023-04-22T21:08:25.325Z,49.69
2023-04-22T21:10:51.954Z,49.70
2023-04-22T21:13:18.583Z,49.72
2023-04-22T21:15:45.212Z,49.78
2023-04-22T21:18:11.840Z,49.70
2023-04-22T21:20:38.478Z,49.70
2023-04-22T21:23:05.106Z,49.72
2023-04-22T21:25:31.801Z,49.75
2023-04-22T21:27:58.435Z,49.81
2023-04-22T21:30:25.078Z,49.84
2023-04-22T21:32:51.727Z,49.88
2023-04-22T21:35:18.376Z,49.75
2023-04-22T21:37:45.006Z,49.87
2023-04-22T21:40:11.849Z,49.92
2023-04-22T21:42:38.481Z,49.84
2023-04-22T21:45:05.671Z,49.82
2023-04-22T21:47:32.364Z,49.89
2023-04-22T21:49:59.033Z,49.83
2023-04-22T21:52:25.677Z,49.89
2023-04-22T21:54:52.337Z,49.84
2023-04-22T21:57:19.193Z,49.84
2023-04-22T21:59:45.906Z,49.85
2023-04-22T22:02:12.665Z,49.88
2023-04-22T22:04:39.695Z,49.97
2023-04-22T22:07:06.833Z,49.88
2023-04-22T22:09:33.480Z,49.84
2023-04-22T22:12:00.145Z,49.92
2023-04-22T22:14:27.047Z,49.92
2023-04-22T22:16:54.024Z,49.96
2023-04-22T22:19:20.778Z,49.88
2023-04-22T22:21:47.446Z,50.00
2023-04-22T22:24:14.111Z,49.94
2023-04-22T22:26:40.746Z,50.00
2023-04-22T22:29:07.371Z,49.98
2023-04-22T22:31:34.037Z,49.97
2023-04-22T22:34:00.758Z,49.99
2023-04-22T22:36:27.633Z,49.96
2023-04-22T22:38:54.268Z,49.94
2023-04-22T22:41:20.920Z,49.94
2023-04-22T22:43:47.550Z,49.97
2023-04-22T22:46:14.231Z,49.97
2023-04-22T22:48:40.926Z,49.99
2023-04-22T22:51:07.547Z,49.98
2023-04-22T22:53:34.409Z,49.94
2023-04-22T22:56:01.065Z,49.93
2023-04-22T22:58:27.841Z,49.93
2023-04-22T23:00:54.527Z,50.00
2023-04-22T23:03:21.306Z,49.95
2023-04-22T23:05:48.233Z,49.97
2023-04-22T23:08:14.872Z,50.01
2023-04-22T23:10:41.514Z,49.98
2023-04-22T23:13:08.167Z,50.01
2023-04-22T23:15:34.828Z,50.05
2023-04-22T23:18:01.545Z,49.97
2023-04-22T23:20:28.216Z,50.05
2023-04-22T23:22:55.090Z,49.98
2023-04-22T23:25:21.736Z,50.06
2023-04-22T23:27:48.378Z,50.01
2023-04-22T23:30:15.029Z,50.07
2023-04-22T23:32:41.964Z,50.04
2023-04-22T23:35:08.652Z,50.05
2023-04-22T23:37:35.313Z,50.00
2023-04-22T23:40:01.956Z,50.03
2023-04-22T23:42:28.835Z,50.05
2023-04-22T23:44:55.513Z,49.99
2023-04-22T23:47:22.200Z,50.10
2023-04-22T23:49:48.867Z,50.05
2023-04-22T23:52:15.525Z,50.11
2023-04-22T23:54:42.403Z,50.02
2023-04-22T23:57:09.284Z,50.03
2023-04-22T23:59:36.130Z,50.05
